North Hill, Ohio
Current Conditions -  °F | °C
As of 10:10 PM on Monday 20 Oct 2014 (Local Time) from KAKR Reporting Station
Light Rain Light Rain  
Wind Chill: 53°   Ceiling: 900
Heat Index: 53°   Visibility: 10mi
Dew Point: 49°   Wind: 12mph
Humidity: 86%   Direction: 230°SW
Pressure: 29.85"   Gusts: NA
Location:  41.1073°N, 81.4965°W
Report Text: KAKR 210210Z AUTO 23010KT 10SM -RA BKN009 OVC036 12/09 A2985 RMK AO2 CIG 006V014 P0000 T01170094
Loading
Personal Weather Stations






























Interactive Weather Map
Tropical Storm Tracking
New forecast layout! Learn more

10-Day Weather Forecast

Advertisements
Track Severe Weather on mobile